Terminal Aerodrome Forecast
Issued by NWS

Current Version | Previous Version | Graphics & Text | Print | Product List | Glossary On
Versions: 1 2 3 4 5 6 7 8 9 10 11 12 13 14 15 16 17 18 19 20
000
FTUS41 KILN 031700 RRA
TAFLCK
TAF
KLCK 031744Z 0318/0418 18011KT 5SM -RA BR SCT006 OVC012
      TEMPO 0319/0323 2SM -RA BR OVC006
     FM032300 22012G20KT 3SM -SHRA BR OVC008
     FM040500 27008KT 4SM -RA BR OVC007
     FM041200 33008KT 2SM -SN BR OVC006=

USA.gov is the U.S. government's official web portal to all federal, state and local government web resources and services.